createdAt,value
2022-08-23T00:02:31.963Z,100096.06
2022-08-23T00:05:08.888Z,100096.96
2022-08-23T00:07:45.233Z,100096.57
2022-08-23T00:10:19.371Z,100094.00
2022-08-23T00:12:51.640Z,100095.13
2022-08-23T00:15:23.993Z,100100.80
2022-08-23T00:17:56.533Z,100100.41
2022-08-23T00:20:28.858Z,100101.88
2022-08-23T00:23:01.143Z,100103.53
2022-08-23T00:25:33.348Z,100106.42
2022-08-23T00:28:11.444Z,100108.31
2022-08-23T00:30:47.296Z,100106.90
2022-08-23T00:33:19.498Z,100111.69
2022-08-23T00:35:51.698Z,100118.21
2022-08-23T00:38:34.036Z,100120.34
2022-08-23T00:41:07.540Z,100118.05
2022-08-23T00:44:00.932Z,100120.02
2022-08-23T00:47:01.819Z,100120.02
2022-08-23T00:49:37.234Z,100120.09
2022-08-23T00:52:10.829Z,100117.29
2022-08-23T00:54:44.427Z,100113.25
2022-08-23T00:57:19.880Z,100113.66
2022-08-23T00:59:52.094Z,100115.55
2022-08-23T01:02:24.939Z,100115.34
2022-08-23T01:04:59.638Z,100119.60
2022-08-23T01:07:42.263Z,100123.83
2022-08-23T01:10:22.382Z,100126.46
2022-08-23T01:13:03.419Z,100131.30
2022-08-23T01:15:40.084Z,100126.73
2022-08-23T01:18:16.427Z,100126.63
2022-08-23T01:21:03.002Z,100120.39
2022-08-23T01:23:42.032Z,100116.21
2022-08-23T01:26:22.054Z,100114.71
2022-08-23T01:28:55.725Z,100114.55
2022-08-23T01:31:28.207Z,100115.42
2022-08-23T01:34:06.787Z,100114.95
2022-08-23T01:36:39.700Z,100115.03
2022-08-23T01:39:12.551Z,100110.28
2022-08-23T01:41:45.071Z,100105.95
2022-08-23T01:44:17.664Z,100104.40
2022-08-23T01:46:50.690Z,100105.53
2022-08-23T01:49:30.175Z,100102.39
2022-08-23T01:52:02.512Z,100097.85
2022-08-23T01:54:34.695Z,100096.48
2022-08-23T01:57:08.897Z,100096.25
2022-08-23T01:59:41.433Z,100098.77
2022-08-23T02:02:15.215Z,100093.23
2022-08-23T02:04:47.419Z,100094.38
2022-08-23T02:07:20.900Z,100096.11
2022-08-23T02:09:53.067Z,100094.20
2022-08-23T02:12:25.512Z,100094.08
2022-08-23T02:14:57.677Z,100096.38
2022-08-23T02:17:29.904Z,100097.99
2022-08-23T02:20:04.491Z,100101.94
2022-08-23T02:22:37.770Z,100108.06
2022-08-23T02:25:11.496Z,100110.35
2022-08-23T02:27:44.290Z,100108.79
2022-08-23T02:30:17.041Z,100113.63
2022-08-23T02:32:49.200Z,100111.43
2022-08-23T02:35:24.530Z,100118.80
2022-08-23T02:37:56.685Z,100127.03
2022-08-23T02:40:28.894Z,100133.38
2022-08-23T02:43:01.225Z,100132.95
2022-08-23T02:45:33.607Z,100131.43
2022-08-23T02:48:06.491Z,100136.84
2022-08-23T02:50:39.143Z,100137.85
2022-08-23T02:53:11.373Z,100142.11
2022-08-23T02:55:45.627Z,100140.37
2022-08-23T02:58:17.911Z,100143.56
2022-08-23T03:00:51.920Z,100146.54
2022-08-23T03:03:24.355Z,100140.50
2022-08-23T03:05:57.176Z,100148.59
2022-08-23T03:08:49.647Z,100158.63
2022-08-23T03:11:23.466Z,100161.79
2022-08-23T03:13:57.646Z,100163.41
2022-08-23T03:16:30.318Z,100165.86
2022-08-23T03:19:03.031Z,100165.41
2022-08-23T03:21:35.499Z,100166.66
2022-08-23T03:24:10.356Z,100172.46
2022-08-23T03:26:45.911Z,100169.39
2022-08-23T03:29:18.993Z,100177.84
2022-08-23T03:31:51.788Z,100179.70
2022-08-23T03:34:26.679Z,100182.98
2022-08-23T03:36:59.103Z,100186.27
2022-08-23T03:39:31.667Z,100192.90
2022-08-23T03:42:03.928Z,100201.06
2022-08-23T03:44:36.176Z,100205.65
2022-08-23T03:47:08.942Z,100210.52
2022-08-23T03:49:41.562Z,100211.00
2022-08-23T03:52:14.097Z,100219.21
2022-08-23T03:54:46.239Z,100223.77
2022-08-23T03:57:18.376Z,100224.46
2022-08-23T03:59:50.668Z,100224.00
2022-08-23T04:02:22.887Z,100225.21
2022-08-23T04:04:55.076Z,100227.66
2022-08-23T04:07:27.716Z,100232.02
2022-08-23T04:09:59.900Z,100229.30
2022-08-23T04:12:32.089Z,100237.50
2022-08-23T04:15:05.363Z,100238.09
2022-08-23T04:17:37.659Z,100237.98
2022-08-23T04:20:11.572Z,100235.29
2022-08-23T04:22:45.930Z,100234.48
2022-08-23T04:25:34.996Z,100235.95
2022-08-23T04:28:08.011Z,100236.62
2022-08-23T04:30:40.146Z,100234.83
2022-08-23T04:33:17.882Z,100234.17
2022-08-23T04:35:50.519Z,100232.83
2022-08-23T04:38:24.457Z,100231.05
2022-08-23T04:41:16.123Z,100230.81
2022-08-23T04:43:48.839Z,100230.79
2022-08-23T04:46:21.102Z,100231.99
2022-08-23T04:48:54.254Z,100233.72
2022-08-23T04:51:26.432Z,100233.66
2022-08-23T04:53:58.664Z,100228.88
2022-08-23T04:56:31.258Z,100233.15
2022-08-23T04:59:03.552Z,100233.52
2022-08-23T05:01:36.283Z,100235.83
2022-08-23T05:04:09.208Z,100233.94
2022-08-23T05:06:41.392Z,100232.81
2022-08-23T05:09:17.235Z,100232.57
2022-08-23T05:11:52.674Z,100235.35
2022-08-23T05:14:24.813Z,100240.20
2022-08-23T05:16:57.524Z,100238.39
2022-08-23T05:19:29.768Z,100240.08
2022-08-23T05:22:01.971Z,100240.58
2022-08-23T05:24:34.264Z,100237.36
2022-08-23T05:27:08.684Z,100233.59
2022-08-23T05:29:44.011Z,100234.98
2022-08-23T05:32:16.159Z,100236.08
2022-08-23T05:34:48.577Z,100234.28
2022-08-23T05:37:20.844Z,100235.73
2022-08-23T05:39:53.208Z,100234.60
2022-08-23T05:42:25.839Z,100229.83
2022-08-23T05:44:58.087Z,100224.92
2022-08-23T05:47:33.787Z,100228.97
2022-08-23T05:50:07.409Z,100231.02
2022-08-23T05:52:39.800Z,100231.05
2022-08-23T05:55:12.371Z,100222.89
2022-08-23T05:57:44.630Z,100229.90
2022-08-23T06:00:17.202Z,100226.80
2022-08-23T06:02:50.498Z,100231.11
2022-08-23T06:05:22.707Z,100228.45
2022-08-23T06:07:56.719Z,100230.95
2022-08-23T06:10:28.912Z,100232.95
2022-08-23T06:13:02.990Z,100237.02
2022-08-23T06:15:35.187Z,100234.48
2022-08-23T06:18:07.399Z,100235.34
2022-08-23T06:20:39.684Z,100237.36
2022-08-23T06:23:12.235Z,100241.95
2022-08-23T06:25:44.476Z,100246.49
2022-08-23T06:28:16.680Z,100241.65
2022-08-23T06:30:48.915Z,100238.09
2022-08-23T06:33:21.744Z,100243.98
2022-08-23T06:36:06.340Z,100238.83
2022-08-23T06:38:38.904Z,100244.45
2022-08-23T06:41:13.947Z,100244.52
2022-08-23T06:43:48.819Z,100246.95
2022-08-23T06:46:21.292Z,100248.36
2022-08-23T06:48:56.315Z,100254.54
2022-08-23T06:51:31.768Z,100255.94
2022-08-23T06:54:07.159Z,100255.65
2022-08-23T06:56:40.671Z,100254.88
2022-08-23T06:59:13.556Z,100256.17
2022-08-23T07:01:48.296Z,100258.52
2022-08-23T07:04:23.324Z,100262.28
2022-08-23T07:06:55.756Z,100262.95
2022-08-23T07:09:28.334Z,100268.33
2022-08-23T07:12:01.659Z,100268.23
2022-08-23T07:14:33.956Z,100267.48
2022-08-23T07:17:06.680Z,100272.23
2022-08-23T07:19:39.311Z,100276.04
2022-08-23T07:22:12.124Z,100278.42
2022-08-23T07:24:44.650Z,100281.50
2022-08-23T07:27:16.881Z,100282.33
2022-08-23T07:29:49.275Z,100284.62
2022-08-23T07:32:21.453Z,100282.66
2022-08-23T07:34:53.697Z,100280.19
2022-08-23T07:37:26.461Z,100280.38
2022-08-23T07:39:59.129Z,100276.98
2022-08-23T07:42:31.404Z,100278.80
2022-08-23T07:45:04.168Z,100279.75
2022-08-23T07:47:36.792Z,100280.23
2022-08-23T07:50:10.667Z,100281.80
2022-08-23T07:52:42.963Z,100285.42
2022-08-23T07:55:15.277Z,100287.42
2022-08-23T07:57:47.428Z,100289.89
2022-08-23T08:00:20.138Z,100287.25
2022-08-23T08:02:52.643Z,100290.30
2022-08-23T08:05:27.360Z,100293.58
2022-08-23T08:07:59.719Z,100293.70
2022-08-23T08:10:32.311Z,100299.10
2022-08-23T08:13:04.506Z,100298.95
2022-08-23T08:15:37.107Z,100302.08
2022-08-23T08:18:09.327Z,100299.71
2022-08-23T08:20:46.090Z,100301.30
2022-08-23T08:23:18.312Z,100299.16
2022-08-23T08:25:50.517Z,100295.79
2022-08-23T08:28:23.901Z,100293.22
2022-08-23T08:30:56.192Z,100292.77
2022-08-23T08:33:30.864Z,100292.48
2022-08-23T08:36:03.741Z,100294.04
2022-08-23T08:38:48.267Z,100296.89
2022-08-23T08:41:37.740Z,100303.10
2022-08-23T08:44:21.304Z,100299.10
2022-08-23T08:46:57.918Z,100297.78
2022-08-23T08:49:38.069Z,100297.98
2022-08-23T08:52:16.304Z,100297.69
2022-08-23T08:54:53.268Z,100288.79
2022-08-23T08:57:27.883Z,100287.48
2022-08-23T09:00:04.273Z,100294.45
2022-08-23T09:02:38.939Z,100294.26
2022-08-23T09:05:15.892Z,100296.98
2022-08-23T09:07:59.472Z,100296.65
2022-08-23T09:10:54.259Z,100293.77
2022-08-23T09:13:53.713Z,100296.81
2022-08-23T09:16:41.223Z,100296.49
2022-08-23T09:19:13.728Z,100295.55
2022-08-23T09:21:49.629Z,100294.80
2022-08-23T09:24:22.251Z,100292.79
2022-08-23T09:26:55.031Z,100292.91
2022-08-23T09:29:30.034Z,100290.84
2022-08-23T09:32:03.612Z,100297.83
2022-08-23T09:34:43.840Z,100296.13
2022-08-23T09:37:20.743Z,100294.27
2022-08-23T09:39:55.824Z,100287.70
2022-08-23T09:42:36.004Z,100287.61
2022-08-23T09:45:26.556Z,100288.83
2022-08-23T09:47:58.985Z,100291.90
2022-08-23T09:50:35.514Z,100291.38
2022-08-23T09:53:11.132Z,100290.29
2022-08-23T09:55:48.235Z,100288.07
2022-08-23T09:58:27.551Z,100284.16
2022-08-23T10:01:19.605Z,100281.98
2022-08-23T10:04:10.691Z,100279.02
2022-08-23T10:06:46.167Z,100274.05
2022-08-23T10:09:28.708Z,100274.52
2022-08-23T10:12:02.981Z,100271.79
2022-08-23T10:14:35.347Z,100267.67
2022-08-23T10:17:19.745Z,100265.86
2022-08-23T10:20:00.118Z,100256.79
2022-08-23T10:22:42.086Z,100254.30
2022-08-23T10:25:20.016Z,100250.99
2022-08-23T10:28:21.867Z,100248.26
2022-08-23T10:31:01.504Z,100257.60
2022-08-23T10:33:43.471Z,100253.13
2022-08-23T10:36:22.404Z,100257.83
2022-08-23T10:39:00.808Z,100252.60
2022-08-23T10:41:51.723Z,100267.02
2022-08-23T10:44:33.304Z,100260.18
2022-08-23T10:47:16.745Z,100262.67
2022-08-23T10:49:53.551Z,100258.89
2022-08-23T10:52:31.125Z,100257.89
2022-08-23T10:55:17.535Z,100251.77
2022-08-23T10:57:53.378Z,100246.35
2022-08-23T11:00:29.319Z,100242.36
2022-08-23T11:03:19.190Z,100249.36
2022-08-23T11:06:42.169Z,100244.74
2022-08-23T11:09:32.805Z,100243.61
2022-08-23T11:12:20.215Z,100250.03
2022-08-23T11:15:05.153Z,100254.18
2022-08-23T11:17:53.917Z,100256.57
2022-08-23T11:21:01.226Z,100252.25
2022-08-23T11:23:43.564Z,100256.27
2022-08-23T11:26:53.344Z,100263.75
2022-08-23T11:29:34.761Z,100261.71
2022-08-23T11:32:26.931Z,100264.76
2022-08-23T11:35:10.261Z,100258.49
2022-08-23T11:38:03.833Z,100255.34
2022-08-23T11:41:12.779Z,100261.67
2022-08-23T11:43:47.803Z,100261.41
2022-08-23T11:46:37.386Z,100256.62
2022-08-23T11:49:32.184Z,100261.22
2022-08-23T11:52:17.335Z,100258.31
2022-08-23T11:55:08.612Z,100259.10
2022-08-23T11:57:57.923Z,100262.64
2022-08-23T12:00:51.347Z,100256.73
2022-08-23T12:03:34.113Z,100248.45
2022-08-23T12:06:31.878Z,100245.67
2022-08-23T12:09:12.411Z,100241.70
2022-08-23T12:12:27.727Z,100241.66
2022-08-23T12:15:02.412Z,100237.73
2022-08-23T12:18:11.648Z,100235.95
2022-08-23T12:20:48.448Z,100228.89
2022-08-23T12:23:23.147Z,100226.08
2022-08-23T12:26:14.038Z,100227.04
2022-08-23T12:28:50.963Z,100222.77
2022-08-23T12:31:34.248Z,100227.77
2022-08-23T12:34:25.774Z,100229.74
2022-08-23T12:37:09.578Z,100221.52
2022-08-23T12:39:50.414Z,100216.30
2022-08-23T12:42:29.382Z,100214.54
2022-08-23T12:45:09.919Z,100219.76
2022-08-23T12:47:43.514Z,100216.53
2022-08-23T12:50:32.846Z,100213.96
2022-08-23T12:53:09.917Z,100209.90
2022-08-23T12:55:45.279Z,100204.98
2022-08-23T12:58:16.934Z,100202.21
2022-08-23T13:00:58.320Z,100202.33
2022-08-23T13:03:35.973Z,100190.02
2022-08-23T13:06:11.843Z,100192.45
2022-08-23T13:08:49.255Z,100191.80
2022-08-23T13:11:26.248Z,100190.00
2022-08-23T13:13:58.699Z,100179.11
2022-08-23T13:16:43.865Z,100177.27
2022-08-23T13:19:31.841Z,100179.05
2022-08-23T13:22:22.266Z,100182.69
2022-08-23T13:28:03.059Z,100175.24
2022-08-23T13:30:37.354Z,100172.56
2022-08-23T13:33:25.579Z,100164.43
2022-08-23T13:36:13.247Z,100164.45
2022-08-23T13:38:47.066Z,100170.48
2022-08-23T13:41:38.414Z,100168.37
2022-08-23T13:44:15.623Z,100159.68
2022-08-23T13:46:51.314Z,100149.70
2022-08-23T13:49:28.718Z,100150.92
2022-08-23T13:52:41.609Z,100149.96
2022-08-23T13:55:03.255Z,100145.41
2022-08-23T13:57:37.336Z,100141.43
2022-08-23T14:00:15.335Z,100134.65
2022-08-23T14:02:51.020Z,100136.78
2022-08-23T14:05:25.151Z,100151.27
2022-08-23T14:07:57.478Z,100148.52
2022-08-23T14:10:30.176Z,100153.25
2022-08-23T14:13:03.098Z,100143.45
2022-08-23T14:18:28.280Z,100150.23
2022-08-23T14:21:02.003Z,100153.08
2022-08-23T14:23:34.224Z,100157.20
2022-08-23T14:26:06.827Z,100165.81
2022-08-23T14:28:44.290Z,100164.18
2022-08-23T14:31:16.790Z,100174.16
2022-08-23T14:33:49.555Z,100179.67
2022-08-23T14:36:22.037Z,100177.91
2022-08-23T14:38:57.445Z,100170.65
2022-08-23T14:41:31.856Z,100165.46
2022-08-23T14:44:05.144Z,100160.02
2022-08-23T14:46:37.356Z,100166.41
2022-08-23T14:49:09.626Z,100172.09
2022-08-23T14:51:46.318Z,100179.19
2022-08-23T14:54:23.031Z,100175.29
2022-08-23T14:56:55.727Z,100173.27
2022-08-23T14:59:27.979Z,100176.11
2022-08-23T15:02:01.001Z,100180.23
2022-08-23T15:04:34.301Z,100179.77
2022-08-23T15:07:18.275Z,100172.80
2022-08-23T15:09:55.907Z,100172.08
2022-08-23T15:15:22.345Z,100170.39
2022-08-23T15:17:58.008Z,100171.53
2022-08-23T15:20:34.443Z,100179.29
2022-08-23T15:23:08.015Z,100184.59
2022-08-23T15:25:42.300Z,100192.45
2022-08-23T15:28:16.865Z,100196.79
2022-08-23T15:30:50.604Z,100195.34
2022-08-23T15:33:27.004Z,100196.15
2022-08-23T15:36:03.650Z,100184.55
2022-08-23T15:38:36.797Z,100178.86
2022-08-23T15:41:09.596Z,100188.69
2022-08-23T15:43:43.119Z,100202.92
2022-08-23T15:46:21.642Z,100205.98
2022-08-23T15:48:58.940Z,100190.30
2022-08-23T15:51:31.380Z,100170.14
2022-08-23T15:54:04.096Z,100160.77
2022-08-23T15:56:41.353Z,100186.54
2022-08-23T15:59:17.626Z,100204.91
2022-08-23T16:01:49.920Z,100199.38
2022-08-23T16:04:22.127Z,100205.40
2022-08-23T16:06:54.294Z,100206.35
2022-08-23T16:09:28.162Z,100209.15
2022-08-23T16:12:00.662Z,100221.97
2022-08-23T16:14:33.152Z,100216.40
2022-08-23T16:17:06.100Z,100214.10
2022-08-23T16:19:38.425Z,100214.39
2022-08-23T16:22:10.650Z,100198.14
2022-08-23T16:24:42.990Z,100179.77
2022-08-23T16:27:15.242Z,100181.20
2022-08-23T16:29:47.389Z,100196.02
2022-08-23T16:32:19.593Z,100213.94
2022-08-23T16:34:51.944Z,100223.85
2022-08-23T16:37:24.195Z,100232.75
2022-08-23T16:39:56.487Z,100241.38
2022-08-23T16:42:28.676Z,100243.11
2022-08-23T16:45:01.029Z,100247.16
2022-08-23T16:47:34.947Z,100249.23
2022-08-23T16:50:08.267Z,100247.37
2022-08-23T16:52:40.496Z,100242.42
2022-08-23T16:55:14.586Z,100247.77
2022-08-23T16:57:46.804Z,100253.52
2022-08-23T17:00:19.893Z,100268.95
2022-08-23T17:02:52.114Z,100296.80
2022-08-23T17:05:25.022Z,100318.97
2022-08-23T17:07:57.308Z,100325.15
2022-08-23T17:10:30.840Z,100322.18
2022-08-23T17:13:03.670Z,100341.65
2022-08-23T17:15:38.051Z,100366.88
2022-08-23T17:18:10.735Z,100387.96
2022-08-23T17:20:43.829Z,100378.19
2022-08-23T17:23:16.147Z,100339.33
2022-08-23T17:25:50.555Z,100325.38
2022-08-23T17:28:22.928Z,100326.35
2022-08-23T17:30:55.485Z,100345.75
2022-08-23T17:33:28.654Z,100376.80
2022-08-23T17:36:00.824Z,100380.71
2022-08-23T17:38:33.160Z,100368.64
2022-08-23T17:41:05.319Z,100356.54
2022-08-23T17:43:37.576Z,100335.14
2022-08-23T17:46:10.054Z,100324.80
2022-08-23T17:48:42.420Z,100336.92
2022-08-23T17:51:14.577Z,100341.73
2022-08-23T17:53:47.556Z,100346.19
2022-08-23T17:56:19.762Z,100348.35
2022-08-23T17:58:52.979Z,100345.14
2022-08-23T18:01:25.366Z,100332.54
2022-08-23T18:03:57.931Z,100319.05
2022-08-23T18:06:30.125Z,100321.04
2022-08-23T18:09:03.506Z,100345.27
2022-08-23T18:11:36.579Z,100387.58
2022-08-23T18:14:09.467Z,100405.75
2022-08-23T18:16:44.099Z,100419.80
2022-08-23T18:19:18.516Z,100562.22
2022-08-23T18:21:50.864Z,100584.91
2022-08-23T18:24:23.204Z,100533.38
2022-08-23T18:27:13.080Z,100562.14
2022-08-23T18:29:45.644Z,100581.07
2022-08-23T18:32:23.811Z,100476.92
2022-08-23T18:34:56.153Z,100446.63
2022-08-23T18:37:28.439Z,100424.09
2022-08-23T18:40:00.996Z,100406.65
2022-08-23T18:42:33.259Z,100388.19
2022-08-23T18:45:05.907Z,100354.91
2022-08-23T18:47:39.080Z,100353.81
2022-08-23T18:50:14.548Z,100333.24
2022-08-23T18:52:46.782Z,100348.55
2022-08-23T18:55:20.341Z,100344.67
2022-08-23T18:57:52.484Z,100316.54
2022-08-23T19:00:24.672Z,100284.04
2022-08-23T19:02:57.447Z,100260.91
2022-08-23T19:05:41.682Z,100245.33
2022-08-23T19:08:15.879Z,100225.84
2022-08-23T19:10:48.769Z,100250.59
2022-08-23T19:13:20.990Z,100249.55
2022-08-23T19:15:53.529Z,100247.85
2022-08-23T19:18:25.782Z,100247.61
2022-08-23T19:20:57.968Z,100247.98
2022-08-23T19:23:30.217Z,100262.56
2022-08-23T19:26:03.575Z,100281.05
2022-08-23T19:28:38.627Z,100322.63
2022-08-23T19:31:11.654Z,100366.22
2022-08-23T19:33:44.347Z,100404.02
2022-08-23T19:36:42.769Z,100436.19
2022-08-23T19:39:09.864Z,100429.27
2022-08-23T19:41:42.379Z,100432.98
2022-08-23T19:44:15.131Z,100437.36
2022-08-23T19:46:50.067Z,100438.00
2022-08-23T19:49:23.048Z,100421.98
2022-08-23T19:51:55.441Z,100419.13
2022-08-23T19:54:28.399Z,100425.91
2022-08-23T19:57:02.091Z,100410.91
2022-08-23T19:59:36.679Z,100421.18
2022-08-23T20:02:09.900Z,100442.31
2022-08-23T20:04:42.271Z,100456.86
2022-08-23T20:07:14.397Z,100479.94
2022-08-23T20:09:47.205Z,100524.09
2022-08-23T20:12:19.443Z,100517.31
2022-08-23T20:14:51.629Z,100476.02
2022-08-23T20:17:24.145Z,100449.45
2022-08-23T20:19:56.786Z,100436.70
2022-08-23T20:22:54.732Z,100438.86
2022-08-23T20:25:27.687Z,100430.99
2022-08-23T20:27:59.991Z,100439.27
2022-08-23T20:30:32.188Z,100446.69
2022-08-23T20:33:05.079Z,100437.07
2022-08-23T20:35:37.270Z,100428.88
2022-08-23T20:38:09.491Z,100421.69
2022-08-23T20:41:01.679Z,100421.55
2022-08-23T20:43:39.203Z,100421.59
2022-08-23T20:46:11.835Z,100433.48
2022-08-23T20:48:44.141Z,100441.06
2022-08-23T20:51:16.375Z,100450.16
2022-08-23T20:53:48.608Z,100448.98
2022-08-23T20:56:21.651Z,100449.00
2022-08-23T20:58:54.339Z,100459.05
2022-08-23T21:01:26.603Z,100457.37
2022-08-23T21:03:58.795Z,100464.23
2022-08-23T21:06:38.741Z,100462.45
2022-08-23T21:09:12.401Z,100453.69
2022-08-23T21:11:45.390Z,100437.11
2022-08-23T21:14:20.744Z,100437.47
2022-08-23T21:16:53.225Z,100437.99
2022-08-23T21:19:25.700Z,100441.00
2022-08-23T21:21:58.613Z,100451.89
2022-08-23T21:24:32.402Z,100446.83
2022-08-23T21:27:09.585Z,100444.70
2022-08-23T21:29:42.297Z,100443.04
2022-08-23T21:32:14.479Z,100453.27
2022-08-23T21:34:46.993Z,100443.37
2022-08-23T21:37:19.215Z,100431.76
2022-08-23T21:39:52.708Z,100429.91
2022-08-23T21:42:26.228Z,100428.13
2022-08-23T21:44:58.415Z,100429.32
2022-08-23T21:47:30.528Z,100429.25
2022-08-23T21:50:02.692Z,100424.34
2022-08-23T21:52:34.900Z,100414.68
2022-08-23T21:55:08.767Z,100405.96
2022-08-23T21:57:41.404Z,100396.53
2022-08-23T22:00:17.462Z,100394.66
2022-08-23T22:02:49.634Z,100392.73
2022-08-23T22:05:21.931Z,100401.40
2022-08-23T22:07:54.259Z,100400.95
2022-08-23T22:10:27.704Z,100406.39
2022-08-23T22:13:01.675Z,100403.44
2022-08-23T22:15:33.981Z,100394.44
2022-08-23T22:18:06.918Z,100387.37
2022-08-23T22:20:39.203Z,100396.38
2022-08-23T22:23:11.693Z,100402.88
2022-08-23T22:25:43.885Z,100403.61
2022-08-23T22:28:16.064Z,100399.90
2022-08-23T22:30:48.366Z,100397.33
2022-08-23T22:33:20.620Z,100396.27
2022-08-23T22:35:52.793Z,100396.67
2022-08-23T22:38:25.749Z,100387.95
2022-08-23T22:40:58.411Z,100378.98
2022-08-23T22:43:30.798Z,100371.61
2022-08-23T22:46:05.015Z,100372.83
2022-08-23T22:48:37.388Z,100370.80
2022-08-23T22:51:12.784Z,100378.19
2022-08-23T22:53:47.645Z,100377.92
2022-08-23T22:56:23.103Z,100377.71
2022-08-23T22:58:55.491Z,100380.63
2022-08-23T23:01:29.657Z,100379.73
2022-08-23T23:04:03.657Z,100382.51
2022-08-23T23:06:36.279Z,100390.78
2022-08-23T23:09:09.845Z,100388.46
2022-08-23T23:11:42.742Z,100386.17
2022-08-23T23:14:16.529Z,100384.44
2022-08-23T23:16:50.231Z,100381.58
2022-08-23T23:19:40.780Z,100386.92
2022-08-23T23:22:12.984Z,100391.64
2022-08-23T23:24:45.125Z,100400.25
2022-08-23T23:27:17.294Z,100396.92
2022-08-23T23:29:49.534Z,100398.95
2022-08-23T23:32:22.021Z,100401.67
2022-08-23T23:34:54.342Z,100402.34
2022-08-23T23:37:30.468Z,100405.88
2022-08-23T23:40:02.875Z,100407.45
2022-08-23T23:42:35.119Z,100410.16
2022-08-23T23:45:09.049Z,100417.61
2022-08-23T23:47:42.633Z,100414.95
2022-08-23T23:50:16.907Z,100427.79
2022-08-23T23:52:49.167Z,100421.23
2022-08-23T23:55:23.135Z,100423.86
2022-08-23T23:57:56.899Z,100429.35
